createdAt,value
2018-09-21T00:01:21.127Z,64.90
2018-09-21T00:03:54.860Z,65.20
2018-09-21T00:06:23.429Z,65.80
2018-09-21T00:08:52.613Z,65.80
2018-09-21T00:11:20.739Z,66.10
2018-09-21T00:21:13.413Z,66.30
2018-09-21T00:26:09.848Z,67.00
2018-09-21T00:31:08.575Z,67.00
2018-09-21T00:33:36.598Z,67.40
2018-09-21T00:36:04.805Z,67.20
2018-09-21T00:38:32.872Z,66.50
2018-09-21T00:41:00.951Z,67.00
2018-09-21T00:43:29.262Z,67.10
2018-09-21T00:45:57.364Z,67.40
2018-09-21T00:48:25.405Z,67.30
2018-09-21T00:50:53.587Z,67.20
2018-09-21T00:58:17.271Z,67.20
2018-09-21T01:00:45.516Z,67.60
2018-09-21T01:03:13.533Z,67.80
2018-09-21T01:05:41.632Z,67.70
2018-09-21T01:10:37.760Z,68.00
2018-09-21T01:13:05.855Z,68.40
2018-09-21T01:15:33.945Z,68.60
2018-09-21T01:18:02.078Z,68.80
2018-09-21T01:22:58.159Z,69.10
2018-09-21T01:25:26.183Z,69.20
2018-09-21T01:30:26.057Z,69.30
2018-09-21T01:32:54.067Z,70.10
2018-09-21T01:35:22.645Z,70.60
2018-09-21T01:37:50.829Z,71.00
2018-09-21T01:40:18.910Z,70.50
2018-09-21T01:42:48.094Z,69.80
2018-09-21T01:45:16.333Z,69.80
2018-09-21T01:47:44.400Z,70.10
2018-09-21T01:50:12.699Z,70.10
2018-09-21T01:52:41.854Z,70.60
2018-09-21T01:57:37.853Z,70.60
2018-09-21T02:00:06.131Z,71.10
2018-09-21T02:02:34.301Z,71.20
2018-09-21T02:05:02.497Z,71.70
2018-09-21T02:07:30.820Z,72.10
2018-09-21T02:09:58.996Z,72.40
2018-09-21T02:12:27.262Z,72.80
2018-09-21T02:14:55.290Z,72.80
2018-09-21T02:19:51.560Z,72.90
2018-09-21T02:22:19.866Z,73.00
2018-09-21T02:24:52.796Z,73.30
2018-09-21T02:27:20.914Z,73.30
2018-09-21T02:29:49.001Z,73.60
2018-09-21T02:32:18.249Z,73.80
2018-09-21T02:34:46.360Z,73.30
2018-09-21T02:37:14.413Z,72.60
2018-09-21T02:39:42.533Z,72.60
2018-09-21T02:44:38.677Z,73.00
2018-09-21T02:52:02.530Z,73.70
2018-09-21T02:57:04.139Z,74.30
2018-09-21T02:59:32.124Z,74.10
2018-09-21T03:02:01.282Z,74.10
2018-09-21T03:04:29.318Z,73.80
2018-09-21T03:09:25.558Z,73.50
2018-09-21T03:12:56.809Z,73.50
2018-09-21T03:15:24.977Z,73.10
2018-09-21T03:17:53.029Z,73.00
2018-09-21T03:20:21.506Z,73.30
2018-09-21T03:22:50.593Z,73.30
2018-09-21T03:25:18.686Z,73.40
2018-09-21T03:27:46.785Z,72.50
2018-09-21T03:30:16.140Z,72.40
2018-09-21T03:32:44.218Z,72.50
2018-09-21T03:35:12.293Z,72.80
2018-09-21T03:37:40.362Z,73.00
2018-09-21T03:40:09.869Z,73.20
2018-09-21T03:42:38.026Z,73.30
2018-09-21T03:45:06.709Z,73.90
2018-09-21T03:47:34.786Z,74.30
2018-09-21T03:50:02.886Z,74.70
2018-09-21T03:54:59.622Z,75.10
2018-09-21T03:57:27.970Z,74.80
2018-09-21T03:59:55.961Z,73.80
2018-09-21T04:02:25.086Z,74.50
2018-09-21T04:04:53.534Z,74.90
2018-09-21T04:07:21.814Z,74.80
2018-09-21T04:19:43.323Z,73.90
2018-09-21T04:22:11.451Z,74.00
2018-09-21T04:24:40.942Z,74.30
2018-09-21T04:27:09.074Z,73.60
2018-09-21T04:29:37.198Z,74.00
2018-09-21T04:32:05.225Z,73.90
2018-09-21T04:34:33.290Z,73.20
2018-09-21T04:37:01.389Z,73.20
2018-09-21T04:41:58.479Z,73.40
2018-09-21T04:44:26.520Z,73.20
2018-09-21T04:46:55.833Z,73.40
2018-09-21T04:49:24.075Z,72.60
2018-09-21T04:51:52.317Z,72.40
2018-09-21T04:54:20.387Z,72.50
2018-09-21T04:56:48.459Z,72.60
2018-09-21T04:59:16.548Z,72.60
2018-09-21T05:01:44.834Z,72.60
2018-09-21T05:04:12.914Z,72.60
2018-09-21T05:06:40.987Z,72.70
2018-09-21T05:09:09.954Z,72.70
2018-09-21T05:11:38.046Z,72.10
2018-09-21T05:14:06.275Z,71.90
2018-09-21T05:16:34.512Z,71.30
2018-09-21T05:19:02.557Z,71.10
2018-09-21T05:21:31.687Z,71.00
2018-09-21T05:24:00.166Z,70.90
2018-09-21T05:26:28.345Z,70.20
2018-09-21T05:28:56.355Z,69.20
2018-09-21T05:31:24.930Z,68.90
2018-09-21T05:33:53.402Z,68.80
2018-09-21T05:36:21.530Z,68.70
2018-09-21T05:38:49.629Z,68.60
2018-09-21T05:41:17.688Z,68.50
2018-09-21T05:46:14.444Z,68.50
2018-09-21T05:48:42.477Z,68.20
2018-09-21T05:51:10.441Z,67.70
2018-09-21T05:53:38.635Z,67.40
2018-09-21T05:56:07.098Z,67.30
2018-09-21T05:58:35.084Z,67.00
2018-09-21T06:01:03.219Z,67.30
2018-09-21T06:03:32.448Z,66.90
2018-09-21T06:06:00.570Z,66.00
2018-09-21T06:08:28.553Z,65.60
2018-09-21T06:10:56.757Z,65.10
2018-09-21T06:13:25.126Z,64.40
2018-09-21T06:15:53.549Z,64.30
2018-09-21T06:18:21.866Z,63.80
2018-09-21T06:20:49.874Z,63.30
2018-09-21T06:23:18.007Z,63.20
2018-09-21T06:25:46.099Z,63.10
2018-09-21T06:28:14.433Z,62.80
2018-09-21T06:30:42.487Z,62.40
2018-09-21T06:33:10.587Z,62.20
2018-09-21T06:35:38.649Z,62.20
2018-09-21T06:38:06.923Z,61.70
2018-09-21T06:40:35.090Z,61.60
2018-09-21T06:43:03.215Z,61.30
2018-09-21T06:45:31.530Z,61.10
2018-09-21T06:47:59.574Z,60.80
2018-09-21T06:50:27.593Z,60.40
2018-09-21T06:52:55.740Z,59.90
2018-09-21T06:55:23.853Z,59.40
2018-09-21T06:57:54.051Z,58.80
2018-09-21T07:00:22.128Z,59.40
2018-09-21T07:02:50.213Z,59.10
2018-09-21T07:05:18.554Z,58.80
2018-09-21T07:07:46.641Z,58.10
2018-09-21T07:10:14.802Z,57.60
2018-09-21T07:12:43.359Z,57.30
2018-09-21T07:15:11.626Z,57.90
2018-09-21T07:17:40.485Z,58.00
2018-09-21T07:20:08.599Z,57.50
2018-09-21T07:22:36.897Z,57.60
2018-09-21T07:30:01.121Z,56.70
2018-09-21T07:32:29.219Z,56.60
2018-09-21T07:34:57.323Z,56.30
2018-09-21T07:39:53.390Z,56.30
2018-09-21T07:44:49.656Z,56.20
2018-09-21T07:47:18.010Z,55.10
2018-09-21T07:54:41.799Z,54.30
2018-09-21T07:57:09.824Z,54.10
2018-09-21T07:59:37.935Z,53.10
2018-09-21T08:02:06.164Z,52.70
2018-09-21T08:07:02.306Z,52.00
2018-09-21T08:14:26.389Z,51.80
2018-09-21T08:16:54.439Z,51.40
2018-09-21T08:21:51.559Z,51.50
2018-09-21T08:24:19.655Z,50.90
2018-09-21T08:26:49.055Z,50.80
2018-09-21T08:29:17.344Z,50.80
2018-09-21T08:31:45.713Z,50.10
2018-09-21T08:39:10.809Z,50.30
2018-09-21T08:41:39.628Z,49.30
2018-09-21T08:44:07.968Z,49.30
2018-09-21T08:46:36.233Z,48.70
2018-09-21T08:49:04.277Z,49.00
2018-09-21T08:51:32.498Z,49.10
2018-09-21T08:54:00.794Z,49.40
2018-09-21T08:56:28.956Z,49.20
2018-09-21T08:58:57.501Z,48.20
2018-09-21T09:01:25.620Z,47.90
2018-09-21T09:03:53.715Z,47.80
2018-09-21T09:06:22.034Z,47.40
2018-09-21T09:08:50.262Z,47.10
2018-09-21T09:11:18.515Z,47.10
2018-09-21T09:13:46.563Z,48.00
2018-09-21T09:16:14.614Z,47.90
2018-09-21T09:18:43.806Z,47.50
2018-09-21T09:21:11.947Z,47.10
2018-09-21T09:23:40.064Z,46.90
2018-09-21T09:26:08.215Z,46.40
2018-09-21T09:28:36.497Z,45.30
2018-09-21T09:33:32.361Z,45.10
2018-09-21T09:36:00.457Z,44.20
2018-09-21T09:40:56.561Z,43.40
2018-09-21T09:43:24.708Z,43.30
2018-09-21T09:45:52.738Z,42.90
2018-09-21T09:48:21.222Z,43.10
2018-09-21T09:50:49.551Z,42.90
2018-09-21T09:53:18.066Z,42.70
2018-09-21T09:55:46.091Z,43.40
2018-09-21T09:58:14.409Z,43.70
2018-09-21T10:00:47.999Z,43.40
2018-09-21T10:03:18.146Z,43.30
2018-09-21T10:05:46.161Z,43.60
2018-09-21T10:10:42.405Z,45.00
2018-09-21T10:15:38.885Z,46.80
2018-09-21T10:18:07.552Z,47.00
2018-09-21T10:20:35.943Z,47.50
2018-09-21T10:23:04.057Z,47.70
2018-09-21T10:30:28.709Z,46.70
2018-09-21T10:32:56.848Z,46.20
2018-09-21T10:37:53.205Z,45.10
2018-09-21T10:40:21.617Z,44.30
2018-09-21T10:42:49.798Z,44.10
2018-09-21T10:45:17.790Z,43.60
2018-09-21T10:50:13.964Z,44.30
2018-09-21T10:52:42.033Z,44.50
2018-09-21T10:55:10.065Z,44.80
2018-09-21T11:00:10.016Z,45.10
2018-09-21T11:05:06.500Z,44.50
2018-09-21T11:10:02.466Z,44.50
2018-09-21T11:12:30.510Z,43.30
2018-09-21T11:17:27.297Z,44.70
2018-09-21T11:19:55.780Z,45.40
2018-09-21T11:22:23.758Z,45.70
2018-09-21T11:24:52.735Z,45.80
2018-09-21T11:27:20.840Z,45.10
2018-09-21T11:29:49.155Z,45.30
2018-09-21T11:34:45.253Z,45.50
2018-09-21T11:37:13.394Z,45.40
2018-09-21T11:44:37.309Z,45.30
2018-09-21T11:47:05.555Z,44.90
2018-09-21T11:49:33.726Z,45.80
2018-09-21T11:52:01.850Z,45.60
2018-09-21T11:54:29.898Z,45.10
2018-09-21T11:56:58.437Z,44.80
2018-09-21T11:59:26.697Z,45.10
2018-09-21T12:01:54.788Z,44.60
2018-09-21T12:04:22.819Z,45.10
2018-09-21T12:06:50.797Z,45.60
2018-09-21T12:09:18.973Z,44.60
2018-09-21T12:11:47.022Z,44.20
2018-09-21T12:14:15.068Z,43.80
2018-09-21T12:19:12.163Z,43.20
2018-09-21T12:21:40.205Z,43.00
2018-09-21T12:24:08.328Z,43.10
2018-09-21T12:26:36.357Z,42.80
2018-09-21T12:29:04.373Z,43.00
2018-09-21T12:31:32.527Z,43.30
2018-09-21T12:34:00.591Z,42.40
2018-09-21T12:38:56.588Z,42.80
2018-09-21T12:41:24.889Z,43.50
2018-09-21T12:43:53.215Z,42.90
2018-09-21T12:46:27.568Z,43.30
2018-09-21T12:48:58.048Z,42.90
2018-09-21T12:51:26.341Z,43.50
2018-09-21T12:53:54.754Z,43.40
2018-09-21T12:56:23.324Z,43.30
2018-09-21T12:58:51.806Z,43.40
2018-09-21T13:01:19.866Z,43.30
2018-09-21T13:03:47.865Z,43.70
2018-09-21T13:06:15.996Z,43.10
2018-09-21T13:08:45.313Z,43.30
2018-09-21T13:11:13.328Z,43.40
2018-09-21T13:13:41.379Z,43.20
2018-09-21T13:21:05.793Z,44.00
2018-09-21T13:28:29.840Z,43.90
2018-09-21T13:33:25.947Z,44.60
2018-09-21T13:38:22.229Z,44.30
2018-09-21T13:40:50.526Z,45.10
2018-09-21T13:43:18.591Z,45.10
2018-09-21T13:45:46.614Z,45.40
2018-09-21T13:48:14.739Z,45.60
2018-09-21T13:50:42.757Z,45.30
2018-09-21T13:53:10.902Z,45.60
2018-09-21T13:55:38.903Z,45.10
2018-09-21T13:58:07.055Z,45.20
2018-09-21T14:00:35.066Z,45.70
2018-09-21T14:05:31.393Z,45.80
2018-09-21T14:07:59.567Z,45.70
2018-09-21T14:10:27.658Z,45.90
2018-09-21T14:12:55.929Z,46.10
2018-09-21T14:15:24.164Z,45.90
2018-09-21T14:17:52.154Z,46.40
2018-09-21T14:20:20.310Z,46.10
2018-09-21T14:22:48.327Z,45.90
2018-09-21T14:25:16.465Z,45.50
2018-09-21T14:27:44.830Z,45.10
2018-09-21T14:30:13.241Z,45.40
2018-09-21T14:32:41.518Z,45.10
2018-09-21T14:35:09.638Z,45.00
2018-09-21T14:37:37.722Z,44.80
2018-09-21T14:40:05.776Z,44.30
2018-09-21T14:45:01.890Z,42.50
2018-09-21T14:47:31.205Z,42.50
2018-09-21T14:49:59.261Z,42.20
2018-09-21T14:52:27.347Z,42.10
2018-09-21T14:54:55.453Z,42.20
2018-09-21T14:57:23.873Z,42.50
2018-09-21T15:02:19.846Z,42.60
2018-09-21T15:04:47.961Z,43.00
2018-09-21T15:07:16.122Z,43.80
2018-09-21T15:09:44.410Z,44.00
2018-09-21T15:12:12.657Z,44.60
2018-09-21T15:14:40.854Z,44.60
2018-09-21T15:17:08.973Z,44.80
2018-09-21T15:19:37.066Z,44.60
2018-09-21T15:22:05.475Z,44.90
2018-09-21T15:27:01.636Z,45.50
2018-09-21T15:29:30.779Z,45.90
2018-09-21T15:31:58.922Z,45.80
2018-09-21T15:34:27.098Z,46.50
2018-09-21T15:39:23.242Z,47.10
2018-09-21T15:41:51.552Z,47.20
2018-09-21T15:44:19.569Z,47.70
2018-09-21T15:46:48.596Z,48.00
2018-09-21T15:49:16.744Z,48.00
2018-09-21T15:51:45.122Z,48.60
2018-09-21T15:54:13.437Z,48.80
2018-09-21T15:59:09.532Z,49.40
2018-09-21T16:01:37.571Z,49.70
2018-09-21T16:04:05.712Z,49.90
2018-09-21T16:06:34.252Z,50.00
2018-09-21T16:09:05.182Z,50.30
2018-09-21T16:11:33.356Z,50.70
2018-09-21T16:16:29.402Z,52.00
2018-09-21T16:18:57.588Z,52.30
2018-09-21T16:21:25.836Z,52.60
2018-09-21T16:28:51.038Z,53.80
2018-09-21T16:31:19.098Z,53.90
2018-09-21T16:36:15.313Z,54.30
2018-09-21T16:38:43.592Z,54.40
2018-09-21T16:41:11.681Z,54.50
2018-09-21T16:43:39.741Z,54.60
2018-09-21T16:46:07.879Z,54.70
2018-09-21T16:48:36.321Z,54.70
2018-09-21T16:51:04.714Z,54.60
2018-09-21T16:56:00.716Z,55.10
2018-09-21T17:00:56.867Z,55.70
2018-09-21T17:03:25.095Z,55.40
2018-09-21T17:08:21.430Z,55.90
2018-09-21T17:10:49.445Z,56.10
2018-09-21T17:13:17.497Z,56.50
2018-09-21T17:15:45.595Z,56.70
2018-09-21T17:18:13.728Z,56.80
2018-09-21T17:23:09.869Z,57.10
2018-09-21T17:25:37.921Z,56.90
2018-09-21T17:28:06.038Z,56.80
2018-09-21T17:30:34.394Z,56.70
2018-09-21T17:33:02.961Z,56.70
2018-09-21T17:35:31.117Z,56.80
2018-09-21T17:37:59.449Z,56.80
2018-09-21T17:40:27.563Z,56.60
2018-09-21T17:45:23.729Z,56.10
2018-09-21T17:47:52.462Z,56.30
2018-09-21T17:50:20.782Z,55.80
2018-09-21T17:52:48.905Z,56.10
2018-09-21T17:55:17.485Z,55.60
2018-09-21T17:57:45.576Z,55.20
2018-09-21T18:02:42.389Z,55.30
2018-09-21T18:05:10.757Z,54.90
2018-09-21T18:07:39.064Z,54.30
2018-09-21T18:10:07.206Z,54.30
2018-09-21T18:12:35.226Z,53.80
2018-09-21T18:15:04.941Z,53.60
2018-09-21T18:17:32.956Z,53.70
2018-09-21T18:20:01.262Z,53.60
2018-09-21T18:22:29.358Z,53.40
2018-09-21T18:27:25.856Z,53.60
2018-09-21T18:32:21.925Z,54.20
2018-09-21T18:34:50.056Z,54.20
2018-09-21T18:37:18.216Z,54.40
2018-09-21T18:39:46.461Z,54.70
2018-09-21T18:42:14.501Z,55.10
2018-09-21T18:44:42.843Z,55.50
2018-09-21T18:49:39.057Z,55.60
2018-09-21T18:52:07.461Z,55.70
2018-09-21T18:54:35.839Z,55.50
2018-09-21T18:57:04.273Z,55.70
2018-09-21T18:59:32.537Z,55.70
2018-09-21T19:02:00.629Z,55.90
2018-09-21T19:06:56.857Z,56.10
2018-09-21T19:11:54.362Z,56.90
2018-09-21T19:14:22.589Z,57.10
2018-09-21T19:16:50.895Z,57.50
2018-09-21T19:19:19.042Z,57.80
2018-09-21T19:21:47.442Z,57.90
2018-09-21T19:24:15.797Z,57.70
2018-09-21T19:26:44.188Z,58.10
2018-09-21T19:34:08.375Z,58.90
2018-09-21T19:36:36.368Z,59.00
2018-09-21T19:39:08.341Z,59.00
2018-09-21T19:44:04.674Z,58.80
2018-09-21T19:46:33.151Z,58.90
2018-09-21T19:49:01.396Z,59.20
2018-09-21T19:51:29.411Z,59.20
2018-09-21T19:53:58.421Z,59.30
2018-09-21T19:56:26.538Z,59.20
2018-09-21T19:58:54.573Z,59.20
2018-09-21T20:01:22.701Z,59.30
2018-09-21T20:13:43.039Z,59.50
2018-09-21T20:16:11.090Z,59.50
2018-09-21T20:18:39.591Z,59.60
2018-09-21T20:21:07.826Z,59.80
2018-09-21T20:23:35.870Z,60.00
2018-09-21T20:31:06.466Z,60.00
2018-09-21T20:33:35.414Z,60.10
2018-09-21T20:40:59.270Z,60.10
2018-09-21T20:43:27.278Z,60.30
2018-09-21T20:45:55.708Z,60.60
2018-09-21T20:48:24.423Z,61.10
2018-09-21T20:50:53.020Z,61.10
2018-09-21T20:53:22.251Z,61.40
2018-09-21T20:55:50.378Z,61.50
2018-09-21T21:00:47.404Z,61.90
2018-09-21T21:03:15.529Z,62.10
2018-09-21T21:05:44.007Z,62.00
2018-09-21T21:10:41.675Z,62.40
2018-09-21T21:13:10.280Z,62.20
2018-09-21T21:15:38.637Z,62.60
2018-09-21T21:18:06.767Z,62.60
2018-09-21T21:20:35.134Z,63.00
2018-09-21T21:23:03.536Z,63.50
2018-09-21T21:25:31.816Z,63.40
2018-09-21T21:27:59.910Z,63.40
2018-09-21T21:32:56.074Z,63.70
2018-09-21T21:35:25.382Z,63.50
2018-09-21T21:37:53.807Z,63.80
2018-09-21T21:40:22.485Z,63.60
2018-09-21T21:42:50.502Z,63.80
2018-09-21T21:45:19.778Z,64.00
2018-09-21T21:47:47.829Z,63.90
2018-09-21T21:52:43.941Z,64.10
2018-09-21T21:55:12.118Z,64.10
2018-09-21T22:00:09.350Z,64.00
2018-09-21T22:05:05.666Z,64.00
2018-09-21T22:07:36.084Z,64.50
2018-09-21T22:10:05.738Z,64.60
2018-09-21T22:12:40.426Z,64.50
2018-09-21T22:15:15.746Z,64.40
2018-09-21T22:17:44.088Z,64.50
2018-09-21T22:22:40.352Z,64.40
2018-09-21T22:25:08.998Z,64.80
2018-09-21T22:27:38.157Z,64.60
2018-09-21T22:30:06.699Z,64.70
2018-09-21T22:35:02.758Z,64.30
2018-09-21T22:37:31.036Z,64.50
2018-09-21T22:39:59.067Z,64.70
2018-09-21T22:42:27.186Z,64.80
2018-09-21T22:44:55.459Z,65.20
2018-09-21T22:49:51.399Z,66.30
2018-09-21T22:52:19.896Z,66.90
2018-09-21T22:54:48.242Z,67.20
2018-09-21T22:57:16.556Z,67.20
2018-09-21T22:59:45.854Z,68.00
2018-09-21T23:02:14.022Z,68.00
2018-09-21T23:04:42.339Z,67.70
2018-09-21T23:07:10.411Z,67.90
2018-09-21T23:09:39.401Z,68.50
2018-09-21T23:12:07.544Z,68.50
2018-09-21T23:14:35.818Z,68.20
2018-09-21T23:19:32.594Z,68.60
2018-09-21T23:22:00.557Z,68.70
2018-09-21T23:24:29.652Z,68.60
2018-09-21T23:26:58.917Z,68.80
2018-09-21T23:29:27.043Z,69.10
2018-09-21T23:31:55.056Z,69.80
2018-09-21T23:34:24.077Z,69.40
2018-09-21T23:36:52.237Z,69.30
2018-09-21T23:39:20.547Z,70.10
2018-09-21T23:41:48.693Z,70.30
2018-09-21T23:44:17.026Z,70.10
2018-09-21T23:46:45.011Z,70.30
2018-09-21T23:49:13.109Z,70.30
2018-09-21T23:51:41.168Z,70.40
2018-09-21T23:54:09.306Z,70.10
2018-09-21T23:56:37.362Z,70.20
2018-09-21T23:59:05.448Z,70.40
